sensor_id;sensor_type;location;lat;lon;timestamp;pressure;altitude;pressure_sealevel;temperature;humidity
30110;BME280;14965;50.660;13.226;2023-06-01T00:00:09;95317.66;;;10.29;73.73
30110;BME280;14965;50.660;13.226;2023-06-01T00:02:36;95322.28;;;10.32;73.40
30110;BME280;14965;50.660;13.226;2023-06-01T00:05:04;95316.78;;;10.32;73.00
30110;BME280;14965;50.660;13.226;2023-06-01T00:07:30;95312.91;;;10.30;72.95
30110;BME280;14965;50.660;13.226;2023-06-01T00:09:56;95302.69;;;10.27;73.11
30110;BME280;14965;50.660;13.226;2023-06-01T00:12:22;95312.22;;;10.22;73.63
30110;BME280;14965;50.660;13.226;2023-06-01T00:14:48;95306.84;;;10.15;73.62
30110;BME280;14965;50.660;13.226;2023-06-01T00:17:14;95295.88;;;10.11;74.07
30110;BME280;14965;50.660;13.226;2023-06-01T00:19:40;95300.69;;;10.07;74.40
30110;BME280;14965;50.660;13.226;2023-06-01T00:22:07;95298.59;;;9.95;74.87
30110;BME280;14965;50.660;13.226;2023-06-01T00:24:33;95302.53;;;9.94;75.34
30110;BME280;14965;50.660;13.226;2023-06-01T00:26:59;95303.03;;;9.89;75.81
30110;BME280;14965;50.660;13.226;2023-06-01T00:29:25;95293.59;;;9.86;76.35
30110;BME280;14965;50.660;13.226;2023-06-01T00:31:51;95294.88;;;9.82;76.64
30110;BME280;14965;50.660;13.226;2023-06-01T00:34:17;95293.75;;;9.79;76.60
30110;BME280;14965;50.660;13.226;2023-06-01T00:36:43;95297.34;;;9.76;76.73
30110;BME280;14965;50.660;13.226;2023-06-01T00:39:11;95296.16;;;9.77;76.61
30110;BME280;14965;50.660;13.226;2023-06-01T00:41:37;95297.78;;;9.75;76.50
30110;BME280;14965;50.660;13.226;2023-06-01T00:44:03;95302.16;;;9.72;76.20
30110;BME280;14965;50.660;13.226;2023-06-01T00:46:31;95296.63;;;9.72;76.00
30110;BME280;14965;50.660;13.226;2023-06-01T00:48:58;95291.13;;;9.72;75.81
30110;BME280;14965;50.660;13.226;2023-06-01T00:51:25;95302.16;;;9.72;75.79
30110;BME280;14965;50.660;13.226;2023-06-01T00:53:51;95291.91;;;9.72;75.45
30110;BME280;14965;50.660;13.226;2023-06-01T00:56:19;95297.41;;;9.72;75.29
30110;BME280;14965;50.660;13.226;2023-06-01T00:58:45;95295.16;;;9.67;75.63
30110;BME280;14965;50.660;13.226;2023-06-01T01:01:11;95287.00;;;9.60;75.60
30110;BME280;14965;50.660;13.226;2023-06-01T01:03:37;95281.16;;;9.58;75.74
30110;BME280;14965;50.660;13.226;2023-06-01T01:06:10;95287.06;;;9.57;75.57
30110;BME280;14965;50.660;13.226;2023-06-01T01:08:47;95289.47;;;9.55;75.78
30110;BME280;14965;50.660;13.226;2023-06-01T01:11:24;95286.78;;;9.51;75.77
30110;BME280;14965;50.660;13.226;2023-06-01T01:13:58;95280.91;;;9.49;76.01
30110;BME280;14965;50.660;13.226;2023-06-01T01:16:28;95285.63;;;9.48;76.07
30110;BME280;14965;50.660;13.226;2023-06-01T01:19:10;95280.22;;;9.45;76.46
30110;BME280;14965;50.660;13.226;2023-06-01T01:21:42;95280.66;;;9.40;76.83
30110;BME280;14965;50.660;13.226;2023-06-01T01:24:23;95282.72;;;9.36;76.79
30110;BME280;14965;50.660;13.226;2023-06-01T01:27:16;95283.56;;;9.33;77.03
30110;BME280;14965;50.660;13.226;2023-06-01T01:29:46;95288.66;;;9.34;77.38
30110;BME280;14965;50.660;13.226;2023-06-01T01:32:13;95288.72;;;9.31;76.92
30110;BME280;14965;50.660;13.226;2023-06-01T01:34:43;95286.78;;;9.28;77.48
30110;BME280;14965;50.660;13.226;2023-06-01T01:37:10;95287.28;;;9.22;77.22
30110;BME280;14965;50.660;13.226;2023-06-01T01:39:36;95285.78;;;9.18;77.16
30110;BME280;14965;50.660;13.226;2023-06-01T01:42:02;95281.53;;;9.13;77.48
30110;BME280;14965;50.660;13.226;2023-06-01T01:44:28;95284.75;;;9.08;77.12
30110;BME280;14965;50.660;13.226;2023-06-01T01:47:04;95292.66;;;9.06;77.06
30110;BME280;14965;50.660;13.226;2023-06-01T01:49:41;95277.75;;;9.04;77.44
30110;BME280;14965;50.660;13.226;2023-06-01T01:52:14;95289.59;;;9.01;77.61
30110;BME280;14965;50.660;13.226;2023-06-01T01:54:43;95281.78;;;8.99;77.82
30110;BME280;14965;50.660;13.226;2023-06-01T01:57:12;95280.63;;;8.96;77.65
30110;BME280;14965;50.660;13.226;2023-06-01T01:59:40;95281.38;;;8.97;77.61
30110;BME280;14965;50.660;13.226;2023-06-01T02:02:07;95280.19;;;8.98;77.65
30110;BME280;14965;50.660;13.226;2023-06-01T02:04:38;95273.13;;;8.97;77.44
30110;BME280;14965;50.660;13.226;2023-06-01T02:07:05;95265.69;;;8.94;77.71
30110;BME280;14965;50.660;13.226;2023-06-01T02:09:31;95255.16;;;8.89;77.26
30110;BME280;14965;50.660;13.226;2023-06-01T02:11:57;95263.53;;;8.82;77.43
30110;BME280;14965;50.660;13.226;2023-06-01T02:14:23;95266.41;;;8.75;77.73
30110;BME280;14965;50.660;13.226;2023-06-01T02:16:49;95257.03;;;8.68;77.53
30110;BME280;14965;50.660;13.226;2023-06-01T02:19:17;95261.38;;;8.69;78.00
30110;BME280;14965;50.660;13.226;2023-06-01T02:21:43;95259.31;;;8.73;77.79
30110;BME280;14965;50.660;13.226;2023-06-01T02:24:09;95252.59;;;8.78;77.76
30110;BME280;14965;50.660;13.226;2023-06-01T02:26:35;95248.19;;;8.81;77.42
30110;BME280;14965;50.660;13.226;2023-06-01T02:29:02;95250.66;;;8.75;77.38
30110;BME280;14965;50.660;13.226;2023-06-01T02:31:28;95253.91;;;8.70;77.43
30110;BME280;14965;50.660;13.226;2023-06-01T02:33:53;95251.19;;;8.66;77.66
30110;BME280;14965;50.660;13.226;2023-06-01T02:36:21;95241.78;;;8.64;77.64
30110;BME280;14965;50.660;13.226;2023-06-01T02:38:47;95242.59;;;8.61;77.68
30110;BME280;14965;50.660;13.226;2023-06-01T02:41:13;95242.69;;;8.57;77.70
30110;BME280;14965;50.660;13.226;2023-06-01T02:43:38;95240.38;;;8.52;78.45
30110;BME280;14965;50.660;13.226;2023-06-01T02:46:04;95249.47;;;8.49;78.38
30110;BME280;14965;50.660;13.226;2023-06-01T02:48:30;95235.00;;;8.45;78.19
30110;BME280;14965;50.660;13.226;2023-06-01T02:50:56;95241.75;;;8.40;78.39
30110;BME280;14965;50.660;13.226;2023-06-01T02:53:23;95249.19;;;8.40;78.73
30110;BME280;14965;50.660;13.226;2023-06-01T02:55:49;95235.81;;;8.42;78.56
30110;BME280;14965;50.660;13.226;2023-06-01T02:58:15;95230.25;;;8.45;78.63
30110;BME280;14965;50.660;13.226;2023-06-01T03:00:42;95221.63;;;8.43;78.62
30110;BME280;14965;50.660;13.226;2023-06-01T03:03:07;95228.38;;;8.39;78.52
30110;BME280;14965;50.660;13.226;2023-06-01T03:05:33;95228.03;;;8.37;78.68
30110;BME280;14965;50.660;13.226;2023-06-01T03:07:59;95224.84;;;8.38;78.68
30110;BME280;14965;50.660;13.226;2023-06-01T03:10:27;95231.03;;;8.46;78.99
30110;BME280;14965;50.660;13.226;2023-06-01T03:12:53;95230.56;;;8.51;78.17
30110;BME280;14965;50.660;13.226;2023-06-01T03:15:20;95226.22;;;8.54;77.87
30110;BME280;14965;50.660;13.226;2023-06-01T03:17:46;95228.09;;;8.57;78.03
30110;BME280;14965;50.660;13.226;2023-06-01T03:20:12;95226.16;;;8.57;77.66
30110;BME280;14965;50.660;13.226;2023-06-01T03:22:38;95225.72;;;8.59;77.77
30110;BME280;14965;50.660;13.226;2023-06-01T03:25:06;95229.22;;;8.63;77.28
30110;BME280;14965;50.660;13.226;2023-06-01T03:27:33;95227.97;;;8.67;77.41
30110;BME280;14965;50.660;13.226;2023-06-01T03:29:59;95227.47;;;8.72;77.20
30110;BME280;14965;50.660;13.226;2023-06-01T03:32:25;95228.97;;;8.77;77.15
30110;BME280;14965;50.660;13.226;2023-06-01T03:34:51;95225.34;;;8.84;76.94
30110;BME280;14965;50.660;13.226;2023-06-01T03:37:17;95232.00;;;8.86;77.17
30110;BME280;14965;50.660;13.226;2023-06-01T03:39:43;95234.28;;;8.91;77.10
30110;BME280;14965;50.660;13.226;2023-06-01T03:42:09;95222.34;;;8.98;77.15
30110;BME280;14965;50.660;13.226;2023-06-01T03:44:36;95219.03;;;9.07;76.26
30110;BME280;14965;50.660;13.226;2023-06-01T03:47:05;95214.56;;;9.16;75.54
30110;BME280;14965;50.660;13.226;2023-06-01T03:49:31;95220.72;;;9.24;75.34
30110;BME280;14965;50.660;13.226;2023-06-01T03:51:57;95210.81;;;9.27;75.27
30110;BME280;14965;50.660;13.226;2023-06-01T03:54:23;95219.47;;;9.29;75.08
30110;BME280;14965;50.660;13.226;2023-06-01T03:56:49;95225.69;;;9.33;75.35
30110;BME280;14965;50.660;13.226;2023-06-01T03:59:15;95216.50;;;9.39;75.36
30110;BME280;14965;50.660;13.226;2023-06-01T04:01:43;95212.34;;;9.51;75.41
30110;BME280;14965;50.660;13.226;2023-06-01T04:04:09;95211.72;;;9.63;74.79
30110;BME280;14965;50.660;13.226;2023-06-01T04:06:35;95214.69;;;9.72;74.64
30110;BME280;14965;50.660;13.226;2023-06-01T04:09:01;95206.19;;;9.83;74.26
30110;BME280;14965;50.660;13.226;2023-06-01T04:11:27;95209.50;;;9.94;73.92
30110;BME280;14965;50.660;13.226;2023-06-01T04:13:53;95206.84;;;10.07;73.45
30110;BME280;14965;50.660;13.226;2023-06-01T04:16:20;95208.13;;;10.22;72.86
30110;BME280;14965;50.660;13.226;2023-06-01T04:18:47;95207.75;;;10.40;72.03
30110;BME280;14965;50.660;13.226;2023-06-01T04:21:13;95204.41;;;10.65;71.51
30110;BME280;14965;50.660;13.226;2023-06-01T04:23:39;95200.59;;;11.25;69.74
30110;BME280;14965;50.660;13.226;2023-06-01T04:26:05;95201.59;;;12.43;65.13
30110;BME280;14965;50.660;13.226;2023-06-01T04:28:31;95207.56;;;13.75;59.12
30110;BME280;14965;50.660;13.226;2023-06-01T04:30:57;95203.66;;;15.01;54.10
30110;BME280;14965;50.660;13.226;2023-06-01T04:33:23;95204.97;;;16.19;50.26
30110;BME280;14965;50.660;13.226;2023-06-01T04:35:51;95192.94;;;17.31;46.84
30110;BME280;14965;50.660;13.226;2023-06-01T04:38:17;95196.84;;;18.26;43.76
30110;BME280;14965;50.660;13.226;2023-06-01T04:40:43;95192.09;;;18.91;42.30
30110;BME280;14965;50.660;13.226;2023-06-01T04:43:09;95187.72;;;19.40;42.05
30110;BME280;14965;50.660;13.226;2023-06-01T04:45:35;95180.13;;;20.07;40.95
30110;BME280;14965;50.660;13.226;2023-06-01T04:48:01;95183.94;;;20.88;39.42
30110;BME280;14965;50.660;13.226;2023-06-01T04:50:26;95186.84;;;21.36;38.62
30110;BME280;14965;50.660;13.226;2023-06-01T04:52:54;95189.94;;;21.07;38.46
30110;BME280;14965;50.660;13.226;2023-06-01T04:55:20;95181.03;;;21.14;38.36
30110;BME280;14965;50.660;13.226;2023-06-01T04:57:46;95183.59;;;21.49;37.66
30110;BME280;14965;50.660;13.226;2023-06-01T05:00:14;95181.63;;;21.67;37.42
30110;BME280;14965;50.660;13.226;2023-06-01T05:02:42;95184.97;;;21.76;37.14
30110;BME280;14965;50.660;13.226;2023-06-01T05:05:08;95177.88;;;21.86;36.94
30110;BME280;14965;50.660;13.226;2023-06-01T05:07:34;95175.72;;;21.64;37.92
30110;BME280;14965;50.660;13.226;2023-06-01T05:10:02;95181.63;;;21.24;38.77
30110;BME280;14965;50.660;13.226;2023-06-01T05:12:28;95174.88;;;21.04;40.19
30110;BME280;14965;50.660;13.226;2023-06-01T05:14:54;95178.97;;;20.72;40.69
30110;BME280;14965;50.660;13.226;2023-06-01T05:17:20;95174.81;;;20.61;42.26
30110;BME280;14965;50.660;13.226;2023-06-01T05:19:46;95182.72;;;20.63;41.74
30110;BME280;14965;50.660;13.226;2023-06-01T05:22:12;95178.44;;;21.05;40.66
30110;BME280;14965;50.660;13.226;2023-06-01T05:24:38;95173.88;;;21.50;39.25
30110;BME280;14965;50.660;13.226;2023-06-01T05:27:06;95179.56;;;21.61;39.22
30110;BME280;14965;50.660;13.226;2023-06-01T05:29:32;95181.34;;;21.59;39.53
30110;BME280;14965;50.660;13.226;2023-06-01T05:31:58;95180.66;;;21.81;39.40
30110;BME280;14965;50.660;13.226;2023-06-01T05:34:24;95178.75;;;21.55;39.19
30110;BME280;14965;50.660;13.226;2023-06-01T05:36:50;95180.84;;;21.23;39.83
30110;BME280;14965;50.660;13.226;2023-06-01T05:39:16;95180.00;;;21.49;39.52
30110;BME280;14965;50.660;13.226;2023-06-01T05:41:42;95177.16;;;22.08;38.65
30110;BME280;14965;50.660;13.226;2023-06-01T05:44:09;95180.88;;;22.99;37.18
30110;BME280;14965;50.660;13.226;2023-06-01T05:46:35;95180.69;;;23.89;35.68
30110;BME280;14965;50.660;13.226;2023-06-01T05:49:01;95172.56;;;24.68;33.97
30110;BME280;14965;50.660;13.226;2023-06-01T05:51:27;95171.97;;;25.11;33.48
30110;BME280;14965;50.660;13.226;2023-06-01T05:53:53;95177.16;;;25.31;33.46
30110;BME280;14965;50.660;13.226;2023-06-01T05:56:19;95178.41;;;25.60;32.90
30110;BME280;14965;50.660;13.226;2023-06-01T05:58:45;95172.69;;;25.90;32.25
30110;BME280;14965;50.660;13.226;2023-06-01T06:01:12;95169.19;;;26.03;31.00
30110;BME280;14965;50.660;13.226;2023-06-01T06:03:38;95173.53;;;25.85;32.10
30110;BME280;14965;50.660;13.226;2023-06-01T06:06:04;95161.50;;;25.54;32.29
30110;BME280;14965;50.660;13.226;2023-06-01T06:08:30;95170.28;;;25.26;33.02
30110;BME280;14965;50.660;13.226;2023-06-01T06:10:56;95170.09;;;24.83;33.31
30110;BME280;14965;50.660;13.226;2023-06-01T06:13:30;95169.06;;;24.09;34.79
30110;BME280;14965;50.660;13.226;2023-06-01T06:15:58;95167.03;;;23.06;36.40
30110;BME280;14965;50.660;13.226;2023-06-01T06:18:25;95172.91;;;22.35;38.28
30110;BME280;14965;50.660;13.226;2023-06-01T06:20:51;95172.78;;;22.02;38.61
30110;BME280;14965;50.660;13.226;2023-06-01T06:23:18;95169.97;;;21.96;38.30
30110;BME280;14965;50.660;13.226;2023-06-01T06:25:46;95160.06;;;21.47;39.68
30110;BME280;14965;50.660;13.226;2023-06-01T06:28:13;95168.09;;;20.85;41.46
30110;BME280;14965;50.660;13.226;2023-06-01T06:30:39;95173.44;;;20.83;41.73
30110;BME280;14965;50.660;13.226;2023-06-01T06:33:05;95171.53;;;21.43;39.95
30110;BME280;14965;50.660;13.226;2023-06-01T06:35:32;95164.84;;;21.89;39.51
30110;BME280;14965;50.660;13.226;2023-06-01T06:37:58;95173.13;;;22.21;38.86
30110;BME280;14965;50.660;13.226;2023-06-01T06:40:24;95172.66;;;22.50;38.94
30110;BME280;14965;50.660;13.226;2023-06-01T06:42:50;95171.91;;;22.50;38.81
30110;BME280;14965;50.660;13.226;2023-06-01T06:45:16;95170.06;;;22.19;39.37
30110;BME280;14965;50.660;13.226;2023-06-01T06:47:42;95178.16;;;22.00;39.40
30110;BME280;14965;50.660;13.226;2023-06-01T06:50:09;95165.88;;;21.92;39.14
30110;BME280;14965;50.660;13.226;2023-06-01T06:52:37;95171.59;;;22.20;38.67
30110;BME280;14965;50.660;13.226;2023-06-01T06:55:04;95170.84;;;22.30;38.71
30110;BME280;14965;50.660;13.226;2023-06-01T06:57:30;95170.22;;;21.98;40.46
30110;BME280;14965;50.660;13.226;2023-06-01T06:59:56;95173.78;;;21.87;40.04
30110;BME280;14965;50.660;13.226;2023-06-01T07:02:22;95168.97;;;22.10;40.19
30110;BME280;14965;50.660;13.226;2023-06-01T07:04:48;95166.13;;;21.94;39.74
30110;BME280;14965;50.660;13.226;2023-06-01T07:07:14;95166.72;;;21.49;41.00
30110;BME280;14965;50.660;13.226;2023-06-01T07:09:41;95164.19;;;21.14;41.54
30110;BME280;14965;50.660;13.226;2023-06-01T07:12:08;95164.19;;;21.14;42.07
30110;BME280;14965;50.660;13.226;2023-06-01T07:14:34;95156.81;;;21.59;41.74
30110;BME280;14965;50.660;13.226;2023-06-01T07:16:59;95148.59;;;22.27;39.32
30110;BME280;14965;50.660;13.226;2023-06-01T07:19:25;95153.97;;;22.47;39.94
30110;BME280;14965;50.660;13.226;2023-06-01T07:21:51;95150.91;;;22.34;39.62
30110;BME280;14965;50.660;13.226;2023-06-01T07:24:18;95151.59;;;22.06;40.07
30110;BME280;14965;50.660;13.226;2023-06-01T07:26:45;95155.34;;;21.75;40.47
30110;BME280;14965;50.660;13.226;2023-06-01T07:29:11;95142.03;;;21.76;40.68
30110;BME280;14965;50.660;13.226;2023-06-01T07:31:37;95147.97;;;21.89;41.15
30110;BME280;14965;50.660;13.226;2023-06-01T07:34:03;95146.56;;;22.50;39.20
30110;BME280;14965;50.660;13.226;2023-06-01T07:36:29;95146.06;;;22.96;37.29
30110;BME280;14965;50.660;13.226;2023-06-01T07:38:55;95140.16;;;22.77;39.20
30110;BME280;14965;50.660;13.226;2023-06-01T07:41:20;95137.63;;;22.79;37.92
30110;BME280;14965;50.660;13.226;2023-06-01T07:43:48;95132.75;;;22.80;36.66
30110;BME280;14965;50.660;13.226;2023-06-01T07:46:13;95132.00;;;22.96;37.12
30110;BME280;14965;50.660;13.226;2023-06-01T07:48:39;95136.06;;;22.84;37.36
30110;BME280;14965;50.660;13.226;2023-06-01T07:51:05;95130.94;;;22.43;38.36
30110;BME280;14965;50.660;13.226;2023-06-01T07:53:31;95133.50;;;22.24;38.18
30110;BME280;14965;50.660;13.226;2023-06-01T07:55:57;95135.22;;;22.10;39.37
30110;BME280;14965;50.660;13.226;2023-06-01T07:58:23;95134.47;;;22.04;40.01
30110;BME280;14965;50.660;13.226;2023-06-01T08:00:50;95137.56;;;22.12;39.09
30110;BME280;14965;50.660;13.226;2023-06-01T08:03:16;95142.22;;;22.43;38.13
30110;BME280;14965;50.660;13.226;2023-06-01T08:05:42;95136.09;;;22.78;36.51
30110;BME280;14965;50.660;13.226;2023-06-01T08:08:08;95131.69;;;23.22;36.80
30110;BME280;14965;50.660;13.226;2023-06-01T08:10:34;95130.63;;;23.31;35.77
30110;BME280;14965;50.660;13.226;2023-06-01T08:13:00;95133.41;;;23.48;35.04
30110;BME280;14965;50.660;13.226;2023-06-01T08:15:26;95124.38;;;23.72;34.56
30110;BME280;14965;50.660;13.226;2023-06-01T08:17:53;95131.03;;;23.63;35.66
30110;BME280;14965;50.660;13.226;2023-06-01T08:20:20;95134.66;;;23.52;35.77
30110;BME280;14965;50.660;13.226;2023-06-01T08:22:45;95122.97;;;23.26;35.18
30110;BME280;14965;50.660;13.226;2023-06-01T08:25:11;95130.66;;;23.20;35.16
30110;BME280;14965;50.660;13.226;2023-06-01T08:27:37;95121.22;;;22.89;37.43
30110;BME280;14965;50.660;13.226;2023-06-01T08:30:05;95124.03;;;22.78;35.73
30110;BME280;14965;50.660;13.226;2023-06-01T08:32:31;95120.72;;;22.96;35.95
30110;BME280;14965;50.660;13.226;2023-06-01T08:34:58;95119.97;;;22.79;35.98
30110;BME280;14965;50.660;13.226;2023-06-01T08:37:24;95118.41;;;22.61;35.03
30110;BME280;14965;50.660;13.226;2023-06-01T08:39:50;95119.94;;;22.90;34.37
30110;BME280;14965;50.660;13.226;2023-06-01T08:42:25;95117.06;;;23.24;33.73
30110;BME280;14965;50.660;13.226;2023-06-01T08:44:54;95119.81;;;23.41;34.89
30110;BME280;14965;50.660;13.226;2023-06-01T08:47:22;95114.88;;;23.64;35.13
30110;BME280;14965;50.660;13.226;2023-06-01T08:49:50;95105.88;;;23.76;32.16
30110;BME280;14965;50.660;13.226;2023-06-01T08:52:21;95106.06;;;23.90;31.57
30110;BME280;14965;50.660;13.226;2023-06-01T08:54:47;95113.56;;;23.76;32.85
30110;BME280;14965;50.660;13.226;2023-06-01T08:57:13;95116.25;;;23.40;33.84
30110;BME280;14965;50.660;13.226;2023-06-01T08:59:40;95107.31;;;23.30;32.25
30110;BME280;14965;50.660;13.226;2023-06-01T09:02:06;95114.28;;;23.13;33.00
30110;BME280;14965;50.660;13.226;2023-06-01T09:04:33;95110.94;;;23.20;32.95
30110;BME280;14965;50.660;13.226;2023-06-01T09:06:58;95109.41;;;23.19;32.40
30110;BME280;14965;50.660;13.226;2023-06-01T09:09:26;95107.34;;;23.25;33.04
30110;BME280;14965;50.660;13.226;2023-06-01T09:12:19;95107.09;;;23.11;31.98
30110;BME280;14965;50.660;13.226;2023-06-01T09:14:45;95095.81;;;23.23;31.20
30110;BME280;14965;50.660;13.226;2023-06-01T09:17:14;95102.22;;;23.29;31.49
30110;BME280;14965;50.660;13.226;2023-06-01T09:19:44;95097.81;;;23.39;31.61
30110;BME280;14965;50.660;13.226;2023-06-01T09:22:11;95102.84;;;23.69;31.68
30110;BME280;14965;50.660;13.226;2023-06-01T09:24:39;95102.06;;;23.63;33.16
30110;BME280;14965;50.660;13.226;2023-06-01T09:27:06;95104.91;;;23.63;33.00
30110;BME280;14965;50.660;13.226;2023-06-01T09:29:32;95090.38;;;23.42;31.98
30110;BME280;14965;50.660;13.226;2023-06-01T09:32:00;95094.53;;;23.18;32.56
30110;BME280;14965;50.660;13.226;2023-06-01T09:34:26;95095.84;;;23.11;33.45
30110;BME280;14965;50.660;13.226;2023-06-01T09:36:54;95096.38;;;23.04;33.50
30110;BME280;14965;50.660;13.226;2023-06-01T09:39:23;95099.50;;;22.61;34.61
30110;BME280;14965;50.660;13.226;2023-06-01T09:41:56;95100.25;;;22.28;33.72
30110;BME280;14965;50.660;13.226;2023-06-01T09:44:27;95103.03;;;22.11;35.11
30110;BME280;14965;50.660;13.226;2023-06-01T09:46:55;95103.56;;;22.27;35.63
30110;BME280;14965;50.660;13.226;2023-06-01T09:49:23;95098.47;;;22.25;36.09
30110;BME280;14965;50.660;13.226;2023-06-01T09:51:50;95089.75;;;22.18;36.05
30110;BME280;14965;50.660;13.226;2023-06-01T09:54:26;95106.78;;;21.86;37.08
30110;BME280;14965;50.660;13.226;2023-06-01T09:56:54;95103.50;;;21.87;36.61
30110;BME280;14965;50.660;13.226;2023-06-01T09:59:21;95098.88;;;21.90;37.02
30110;BME280;14965;50.660;13.226;2023-06-01T10:01:52;95093.34;;;22.12;36.78
30110;BME280;14965;50.660;13.226;2023-06-01T10:04:23;95103.06;;;22.28;35.35
30110;BME280;14965;50.660;13.226;2023-06-01T10:06:56;95095.91;;;22.44;36.15
30110;BME280;14965;50.660;13.226;2023-06-01T10:09:33;95091.28;;;22.52;35.51
30110;BME280;14965;50.660;13.226;2023-06-01T10:12:04;95085.91;;;22.66;35.49
30110;BME280;14965;50.660;13.226;2023-06-01T10:14:33;95080.03;;;22.92;36.19
30110;BME280;14965;50.660;13.226;2023-06-01T10:17:02;95084.38;;;22.93;36.13
30110;BME280;14965;50.660;13.226;2023-06-01T10:19:29;95087.16;;;22.98;36.25
30110;BME280;14965;50.660;13.226;2023-06-01T10:21:57;95088.47;;;22.92;35.18
30110;BME280;14965;50.660;13.226;2023-06-01T10:24:25;95096.38;;;22.82;36.23
30110;BME280;14965;50.660;13.226;2023-06-01T10:27:13;95079.50;;;22.87;33.52
30110;BME280;14965;50.660;13.226;2023-06-01T10:29:41;95084.34;;;22.87;34.48
30110;BME280;14965;50.660;13.226;2023-06-01T10:32:44;95080.53;;;22.68;33.89
30110;BME280;14965;50.660;13.226;2023-06-01T10:35:54;95077.47;;;22.71;35.57
30110;BME280;14965;50.660;13.226;2023-06-01T10:38:24;95080.53;;;22.79;35.29
30110;BME280;14965;50.660;13.226;2023-06-01T10:41:27;95072.56;;;22.88;35.99
30110;BME280;14965;50.660;13.226;2023-06-01T10:43:54;95066.63;;;23.15;34.36
30110;BME280;14965;50.660;13.226;2023-06-01T10:46:40;95081.53;;;23.04;34.39
30110;BME280;14965;50.660;13.226;2023-06-01T10:49:07;95060.56;;;22.82;34.18
30110;BME280;14965;50.660;13.226;2023-06-01T10:51:33;95067.97;;;22.80;34.89
30110;BME280;14965;50.660;13.226;2023-06-01T10:54:25;95069.00;;;22.99;35.13
30110;BME280;14965;50.660;13.226;2023-06-01T10:57:24;95060.69;;;23.29;34.42
30110;BME280;14965;50.660;13.226;2023-06-01T11:00:16;95066.00;;;23.44;35.01
30110;BME280;14965;50.660;13.226;2023-06-01T11:02:55;95064.03;;;23.28;35.79
30110;BME280;14965;50.660;13.226;2023-06-01T11:05:37;95069.25;;;23.01;34.82
30110;BME280;14965;50.660;13.226;2023-06-01T11:08:05;95069.78;;;22.60;35.93
30110;BME280;14965;50.660;13.226;2023-06-01T11:10:57;95057.22;;;22.73;35.60
30110;BME280;14965;50.660;13.226;2023-06-01T11:13:26;95059.00;;;22.87;36.45
30110;BME280;14965;50.660;13.226;2023-06-01T11:16:28;95051.84;;;22.97;35.00
30110;BME280;14965;50.660;13.226;2023-06-01T11:18:54;95053.88;;;22.97;33.99
30110;BME280;14965;50.660;13.226;2023-06-01T11:21:22;95052.38;;;22.73;35.08
30110;BME280;14965;50.660;13.226;2023-06-01T11:23:48;95043.66;;;22.88;34.74
30110;BME280;14965;50.660;13.226;2023-06-01T11:26:16;95046.22;;;22.92;33.32
30110;BME280;14965;50.660;13.226;2023-06-01T11:28:45;95042.88;;;22.87;34.23
30110;BME280;14965;50.660;13.226;2023-06-01T11:31:14;95035.72;;;22.92;34.08
30110;BME280;14965;50.660;13.226;2023-06-01T11:33:41;95030.31;;;22.88;34.96
30110;BME280;14965;50.660;13.226;2023-06-01T11:36:13;95028.34;;;22.55;35.43
30110;BME280;14965;50.660;13.226;2023-06-01T11:38:42;95028.88;;;22.26;34.95
30110;BME280;14965;50.660;13.226;2023-06-01T11:41:09;95031.91;;;22.05;37.04
30110;BME280;14965;50.660;13.226;2023-06-01T11:43:35;95024.75;;;22.10;35.80
30110;BME280;14965;50.660;13.226;2023-06-01T11:46:04;95022.22;;;22.23;36.35
30110;BME280;14965;50.660;13.226;2023-06-01T11:48:31;95024.28;;;22.34;37.53
30110;BME280;14965;50.660;13.226;2023-06-01T11:50:57;95023.25;;;22.54;36.43
30110;BME280;14965;50.660;13.226;2023-06-01T11:53:24;95021.66;;;22.75;37.15
30110;BME280;14965;50.660;13.226;2023-06-01T11:55:51;95018.31;;;22.88;34.98
30110;BME280;14965;50.660;13.226;2023-06-01T11:58:22;95020.16;;;22.63;34.96
30110;BME280;14965;50.660;13.226;2023-06-01T12:00:48;95006.81;;;22.75;35.21
30110;BME280;14965;50.660;13.226;2023-06-01T12:03:16;95018.59;;;22.79;34.11
30110;BME280;14965;50.660;13.226;2023-06-01T12:05:42;95021.44;;;22.56;34.06
30110;BME280;14965;50.660;13.226;2023-06-01T12:08:08;95019.66;;;22.53;33.21
30110;BME280;14965;50.660;13.226;2023-06-01T12:10:38;95019.91;;;22.44;32.59
30110;BME280;14965;50.660;13.226;2023-06-01T12:13:04;95017.38;;;22.41;31.38
30110;BME280;14965;50.660;13.226;2023-06-01T12:15:30;95012.00;;;22.43;32.78
30110;BME280;14965;50.660;13.226;2023-06-01T12:17:56;94999.16;;;22.53;35.66
30110;BME280;14965;50.660;13.226;2023-06-01T12:20:31;95002.75;;;22.70;37.91
30110;BME280;14965;50.660;13.226;2023-06-01T12:22:59;94999.13;;;22.70;37.97
30110;BME280;14965;50.660;13.226;2023-06-01T12:25:25;95001.22;;;22.63;37.88
30110;BME280;14965;50.660;13.226;2023-06-01T12:28:05;94992.53;;;22.56;37.98
30110;BME280;14965;50.660;13.226;2023-06-01T12:30:32;94995.34;;;22.61;37.99
30110;BME280;14965;50.660;13.226;2023-06-01T12:32:58;95003.25;;;22.69;37.18
30110;BME280;14965;50.660;13.226;2023-06-01T12:35:24;94983.84;;;22.54;36.32
30110;BME280;14965;50.660;13.226;2023-06-01T12:38:05;94984.34;;;22.58;35.09
30110;BME280;14965;50.660;13.226;2023-06-01T12:40:31;94990.72;;;22.58;36.48
30110;BME280;14965;50.660;13.226;2023-06-01T12:42:57;94989.25;;;22.29;37.08
30110;BME280;14965;50.660;13.226;2023-06-01T12:45:23;94982.34;;;21.91;35.34
30110;BME280;14965;50.660;13.226;2023-06-01T12:47:48;94993.81;;;21.71;37.31
30110;BME280;14965;50.660;13.226;2023-06-01T12:50:14;94986.63;;;21.47;37.86
30110;BME280;14965;50.660;13.226;2023-06-01T12:52:42;94991.72;;;21.37;39.63
30110;BME280;14965;50.660;13.226;2023-06-01T12:55:10;94995.28;;;21.44;37.42
30110;BME280;14965;50.660;13.226;2023-06-01T12:57:37;94985.38;;;21.54;37.22